createdAt,value
2018-09-11T00:02:16.279Z,15.20
2018-09-11T00:04:44.338Z,15.20
2018-09-11T00:07:12.405Z,15.20
2018-09-11T00:09:40.482Z,15.20
2018-09-11T00:12:08.582Z,15.10
2018-09-11T00:14:36.647Z,15.10
2018-09-11T00:17:04.717Z,15.00
2018-09-11T00:19:32.791Z,14.90
2018-09-11T00:22:00.988Z,14.80
2018-09-11T00:24:29.046Z,14.70
2018-09-11T00:26:57.149Z,14.60
2018-09-11T00:29:25.320Z,14.50
2018-09-11T00:31:53.379Z,14.40
2018-09-11T00:34:21.450Z,14.40
2018-09-11T00:36:49.547Z,14.30
2018-09-11T00:39:17.626Z,14.30
2018-09-11T00:41:45.782Z,14.30
2018-09-11T00:44:13.866Z,14.30
2018-09-11T00:46:43.034Z,14.30
2018-09-11T00:49:11.195Z,14.30
2018-09-11T00:51:39.946Z,14.40
2018-09-11T00:54:08.022Z,14.40
2018-09-11T00:56:36.076Z,14.30
2018-09-11T00:59:04.128Z,14.30
2018-09-11T01:01:32.258Z,14.20
2018-09-11T01:04:00.319Z,14.20
2018-09-11T01:06:28.429Z,14.20
2018-09-11T01:08:56.492Z,14.20
2018-09-11T01:11:24.555Z,14.10
2018-09-11T01:13:52.798Z,14.10
2018-09-11T01:16:20.869Z,14.10
2018-09-11T01:18:48.933Z,14.10
2018-09-11T01:21:16.999Z,14.00
2018-09-11T01:23:45.098Z,14.00
2018-09-11T01:26:13.171Z,14.00
2018-09-11T01:28:41.309Z,14.00
2018-09-11T01:31:09.425Z,14.00
2018-09-11T01:33:37.475Z,14.00
2018-09-11T01:36:05.594Z,14.00
2018-09-11T01:38:33.646Z,14.00
2018-09-11T01:41:01.703Z,14.00
2018-09-11T01:43:29.805Z,14.00
2018-09-11T01:45:57.922Z,14.00
2018-09-11T01:48:26.008Z,14.00
2018-09-11T01:50:54.059Z,14.00
2018-09-11T01:53:22.150Z,14.00
2018-09-11T01:55:50.219Z,14.00
2018-09-11T01:58:18.344Z,14.00
2018-09-11T02:00:46.397Z,14.00
2018-09-11T02:03:14.457Z,14.00
2018-09-11T02:05:42.518Z,13.90
2018-09-11T02:08:10.597Z,13.90
2018-09-11T02:10:38.651Z,14.00
2018-09-11T02:13:06.739Z,14.00
2018-09-11T02:15:34.804Z,14.10
2018-09-11T02:18:02.876Z,14.10
2018-09-11T02:20:30.914Z,14.10
2018-09-11T02:22:58.992Z,14.10
2018-09-11T02:25:27.056Z,14.10
2018-09-11T02:27:55.149Z,14.10
2018-09-11T02:30:23.222Z,14.10
2018-09-11T02:32:51.290Z,14.10
2018-09-11T02:35:19.344Z,14.00
2018-09-11T02:37:47.429Z,14.00
2018-09-11T02:40:15.506Z,14.00
2018-09-11T02:42:43.562Z,14.10
2018-09-11T02:45:11.664Z,14.20
2018-09-11T02:47:39.739Z,14.20
2018-09-11T02:50:08.127Z,14.30
2018-09-11T02:52:36.200Z,14.20
2018-09-11T02:55:04.602Z,14.20
2018-09-11T02:57:32.677Z,14.30
2018-09-11T03:00:00.719Z,14.30
2018-09-11T03:02:28.829Z,14.30
2018-09-11T03:04:56.880Z,14.30
2018-09-11T03:07:24.968Z,14.30
2018-09-11T03:09:53.043Z,14.30
2018-09-11T03:12:21.090Z,14.30
2018-09-11T03:14:49.191Z,14.30
2018-09-11T03:17:17.246Z,14.30
2018-09-11T03:19:45.320Z,14.30
2018-09-11T03:22:13.451Z,14.30
2018-09-11T03:24:41.806Z,14.30
2018-09-11T03:27:09.891Z,14.30
2018-09-11T03:29:37.947Z,14.30
2018-09-11T03:32:06.070Z,14.30
2018-09-11T03:34:34.130Z,14.30
2018-09-11T03:37:02.194Z,14.30
2018-09-11T03:39:30.258Z,14.30
2018-09-11T03:41:58.310Z,14.30
2018-09-11T03:44:26.374Z,14.30
2018-09-11T03:46:54.439Z,14.30
2018-09-11T03:49:22.513Z,14.30
2018-09-11T03:51:50.581Z,14.30
2018-09-11T03:54:18.638Z,14.30
2018-09-11T03:56:46.687Z,14.40
2018-09-11T03:59:14.772Z,14.40
2018-09-11T04:01:42.836Z,14.40
2018-09-11T04:04:10.913Z,14.40
2018-09-11T04:06:38.959Z,14.50
2018-09-11T04:09:09.094Z,14.50
2018-09-11T04:11:37.167Z,14.70
2018-09-11T04:14:05.226Z,14.80
2018-09-11T04:16:33.374Z,14.90
2018-09-11T04:19:01.460Z,14.80
2018-09-11T04:21:29.534Z,14.60
2018-09-11T04:23:57.635Z,14.60
2018-09-11T04:26:26.027Z,14.70
2018-09-11T04:28:54.136Z,14.80
2018-09-11T04:31:22.203Z,14.90
2018-09-11T04:33:50.271Z,14.90
2018-09-11T04:36:18.490Z,14.80
2018-09-11T04:38:46.480Z,14.70
2018-09-11T04:41:14.548Z,14.60
2018-09-11T04:43:42.638Z,14.60
2018-09-11T04:46:12.323Z,14.70
2018-09-11T04:48:41.875Z,14.80
2018-09-11T04:51:09.955Z,14.80
2018-09-11T04:53:38.148Z,14.80
2018-09-11T04:56:06.372Z,14.80
2018-09-11T04:58:34.518Z,14.70
2018-09-11T05:01:02.907Z,14.60
2018-09-11T05:03:31.019Z,14.60
2018-09-11T05:05:59.364Z,14.60
2018-09-11T05:08:27.434Z,14.70
2018-09-11T05:10:55.554Z,14.90
2018-09-11T05:13:23.717Z,15.00
2018-09-11T05:15:52.096Z,15.20
2018-09-11T05:18:20.176Z,15.30
2018-09-11T05:20:48.254Z,15.40
2018-09-11T05:23:16.902Z,15.50
2018-09-11T05:25:45.290Z,15.60
2018-09-11T05:28:13.359Z,15.70
2018-09-11T05:30:41.462Z,15.80
2018-09-11T05:33:09.500Z,15.90
2018-09-11T05:35:37.562Z,16.00
2018-09-11T05:38:05.624Z,16.10
2018-09-11T05:40:34.718Z,16.10
2018-09-11T05:43:02.778Z,16.20
2018-09-11T05:45:30.847Z,16.20
2018-09-11T05:47:59.888Z,16.30
2018-09-11T05:50:28.017Z,16.40
2018-09-11T05:52:56.075Z,16.50
2018-09-11T05:55:24.146Z,16.70
2018-09-11T05:57:52.218Z,16.80
2018-09-11T06:00:20.480Z,16.90
2018-09-11T06:02:48.558Z,17.00
2018-09-11T06:05:16.626Z,17.10
2018-09-11T06:07:44.688Z,17.10
2018-09-11T06:10:12.881Z,17.20
2018-09-11T06:12:40.932Z,17.20
2018-09-11T06:15:09.002Z,17.20
2018-09-11T06:17:37.051Z,17.30
2018-09-11T06:20:05.577Z,17.40
2018-09-11T06:22:33.648Z,17.50
2018-09-11T06:25:01.714Z,17.70
2018-09-11T06:27:29.797Z,17.80
2018-09-11T06:29:57.943Z,18.00
2018-09-11T06:32:25.995Z,18.20
2018-09-11T06:34:54.062Z,18.40
2018-09-11T06:37:22.132Z,18.60
2018-09-11T06:39:50.201Z,18.70
2018-09-11T06:42:18.332Z,18.90
2018-09-11T06:44:46.417Z,19.00
2018-09-11T06:47:14.480Z,19.20
2018-09-11T06:49:42.646Z,19.40
2018-09-11T06:52:10.716Z,19.60
2018-09-11T06:54:38.824Z,19.60
2018-09-11T06:57:06.947Z,19.70
2018-09-11T06:59:35.045Z,19.90
2018-09-11T07:02:03.232Z,19.90
2018-09-11T07:04:31.241Z,20.10
2018-09-11T07:06:59.375Z,20.20
2018-09-11T07:09:27.502Z,20.60
2018-09-11T07:11:55.581Z,21.40
2018-09-11T07:14:23.673Z,22.20
2018-09-11T07:16:51.760Z,23.00
2018-09-11T07:19:19.850Z,23.50
2018-09-11T07:21:48.086Z,23.80
2018-09-11T07:24:16.233Z,24.50
2018-09-11T07:26:44.356Z,25.10
2018-09-11T07:29:12.439Z,24.40
2018-09-11T07:31:40.553Z,24.00
2018-09-11T07:34:08.674Z,23.60
2018-09-11T07:36:36.834Z,23.50
2018-09-11T07:39:06.725Z,24.20
2018-09-11T07:41:34.880Z,24.50
2018-09-11T07:44:03.006Z,24.60
2018-09-11T07:46:31.170Z,24.90
2018-09-11T07:48:59.260Z,24.60
2018-09-11T07:51:27.408Z,24.40
2018-09-11T07:53:55.493Z,24.90
2018-09-11T07:56:23.607Z,25.40
2018-09-11T07:58:51.750Z,25.50
2018-09-11T08:01:19.875Z,25.60
2018-09-11T08:03:47.958Z,25.50
2018-09-11T08:06:16.113Z,25.10
2018-09-11T08:08:45.003Z,25.30
2018-09-11T08:11:13.147Z,25.70
2018-09-11T08:13:41.311Z,26.00
2018-09-11T08:16:09.411Z,26.30
2018-09-11T08:18:40.228Z,25.90
2018-09-11T08:21:08.446Z,25.50
2018-09-11T08:23:36.541Z,26.30
2018-09-11T08:26:04.814Z,27.50
2018-09-11T08:28:33.776Z,28.60
2018-09-11T08:31:02.015Z,28.50
2018-09-11T08:33:30.183Z,27.90
2018-09-11T08:35:58.485Z,27.20
2018-09-11T08:38:26.694Z,27.10
2018-09-11T08:40:54.869Z,27.10
2018-09-11T08:43:23.139Z,27.60
2018-09-11T08:45:51.298Z,28.40
2018-09-11T08:48:19.411Z,28.50
2018-09-11T08:50:47.542Z,27.60
2018-09-11T08:53:15.767Z,27.10
2018-09-11T08:55:43.918Z,27.60
2018-09-11T08:58:12.114Z,28.00
2018-09-11T09:00:40.270Z,27.40
2018-09-11T09:03:08.342Z,27.40
2018-09-11T09:05:36.476Z,26.60
2018-09-11T09:08:04.578Z,26.00
2018-09-11T09:10:32.775Z,25.60
2018-09-11T09:13:00.889Z,25.40
2018-09-11T09:15:28.981Z,25.00
2018-09-11T09:17:57.141Z,24.70
2018-09-11T09:20:25.242Z,24.10
2018-09-11T09:22:53.333Z,23.80
2018-09-11T09:25:21.516Z,24.30
2018-09-11T09:27:49.598Z,24.50
2018-09-11T09:30:17.690Z,24.40
2018-09-11T09:32:45.808Z,24.10
2018-09-11T09:35:13.922Z,24.10
2018-09-11T09:37:42.062Z,24.50
2018-09-11T09:40:10.154Z,25.40
2018-09-11T09:42:38.246Z,27.10
2018-09-11T09:45:07.600Z,27.90
2018-09-11T09:47:35.721Z,28.60
2018-09-11T09:50:03.831Z,28.80
2018-09-11T09:52:31.934Z,28.10
2018-09-11T09:55:00.021Z,28.60
2018-09-11T09:57:28.126Z,29.90
2018-09-11T09:59:56.255Z,30.10
2018-09-11T10:02:25.150Z,31.50
2018-09-11T10:04:54.170Z,31.70
2018-09-11T10:07:23.954Z,31.90
2018-09-11T10:09:52.715Z,29.70
2018-09-11T10:12:20.792Z,28.20
2018-09-11T10:14:48.903Z,29.20
2018-09-11T10:17:16.959Z,30.10
2018-09-11T10:19:45.019Z,31.00
2018-09-11T10:22:13.123Z,32.10
2018-09-11T10:24:41.212Z,32.80
2018-09-11T10:27:09.657Z,31.90
2018-09-11T10:29:37.774Z,30.10
2018-09-11T10:32:05.943Z,29.90
2018-09-11T10:34:33.988Z,29.60
2018-09-11T10:37:02.050Z,29.50
2018-09-11T10:39:30.161Z,29.30
2018-09-11T10:41:58.349Z,29.50
2018-09-11T10:44:26.383Z,29.70
2018-09-11T10:46:54.455Z,28.30
2018-09-11T10:49:22.521Z,27.80
2018-09-11T10:51:50.732Z,29.60
2018-09-11T10:54:19.896Z,31.50
2018-09-11T10:56:47.957Z,30.90
2018-09-11T10:59:16.010Z,30.10
2018-09-11T11:01:44.068Z,30.10
2018-09-11T11:04:12.167Z,28.60
2018-09-11T11:06:40.235Z,27.30
2018-09-11T11:09:09.049Z,27.10
2018-09-11T11:11:37.252Z,27.40
2018-09-11T11:14:05.335Z,27.20
2018-09-11T11:16:33.488Z,27.70
2018-09-11T11:19:01.559Z,27.60
2018-09-11T11:21:29.617Z,28.50
2018-09-11T11:24:00.789Z,30.20
2018-09-11T11:26:28.932Z,29.80
2018-09-11T11:28:57.031Z,29.90
2018-09-11T11:31:25.215Z,29.70
2018-09-11T11:33:56.831Z,29.20
2018-09-11T11:36:25.057Z,29.50
2018-09-11T11:38:53.739Z,29.50
2018-09-11T11:41:21.856Z,28.90
2018-09-11T11:43:49.947Z,28.20
2018-09-11T11:46:18.007Z,28.60
2018-09-11T11:48:46.189Z,29.90
2018-09-11T11:51:14.607Z,30.80
2018-09-11T11:53:42.668Z,30.90
2018-09-11T11:56:11.182Z,31.70
2018-09-11T11:58:39.241Z,32.20
2018-09-11T12:01:07.308Z,31.80
2018-09-11T12:03:35.421Z,31.70
2018-09-11T12:06:03.647Z,31.30
2018-09-11T12:08:32.430Z,31.20
2018-09-11T12:11:00.495Z,32.00
2018-09-11T12:13:28.582Z,31.40
2018-09-11T12:15:56.688Z,31.30
2018-09-11T12:18:25.556Z,32.80
2018-09-11T12:20:54.688Z,33.20
2018-09-11T12:23:22.859Z,33.70
2018-09-11T12:25:51.008Z,34.30
2018-09-11T12:28:19.133Z,33.80
2018-09-11T12:30:47.466Z,34.00
2018-09-11T12:33:15.615Z,33.70
2018-09-11T12:35:47.644Z,33.80
2018-09-11T12:38:15.774Z,34.00
2018-09-11T12:40:43.952Z,32.80
2018-09-11T12:43:12.116Z,31.60
2018-09-11T12:45:40.325Z,30.80
2018-09-11T12:48:08.955Z,32.10
2018-09-11T12:50:36.818Z,33.20
2018-09-11T12:53:04.987Z,33.90
2018-09-11T12:55:33.102Z,33.30
2018-09-11T12:58:01.209Z,33.80
2018-09-11T13:00:29.337Z,34.70
2018-09-11T13:02:57.472Z,34.70
2018-09-11T13:05:25.660Z,34.40
2018-09-11T13:07:53.837Z,33.90
2018-09-11T13:10:21.990Z,34.30
2018-09-11T13:12:50.202Z,34.60
2018-09-11T13:15:18.499Z,34.10
2018-09-11T13:17:46.644Z,34.90
2018-09-11T13:20:14.854Z,37.30
2018-09-11T13:22:43.021Z,37.80
2018-09-11T13:25:11.190Z,37.20
2018-09-11T13:27:39.302Z,35.10
2018-09-11T13:30:07.430Z,35.50
2018-09-11T13:32:35.496Z,36.00
2018-09-11T13:35:03.591Z,37.00
2018-09-11T13:37:31.669Z,36.90
2018-09-11T13:39:59.792Z,35.30
2018-09-11T13:42:27.903Z,34.60
2018-09-11T13:44:56.030Z,33.70
2018-09-11T13:47:24.311Z,34.10
2018-09-11T13:49:52.298Z,33.90
2018-09-11T13:52:20.375Z,33.70
2018-09-11T13:54:48.503Z,33.50
2018-09-11T13:57:16.589Z,33.40
2018-09-11T13:59:44.685Z,34.00
2018-09-11T14:02:12.745Z,34.00
2018-09-11T14:04:40.921Z,34.10
2018-09-11T14:07:09.796Z,34.00
2018-09-11T14:09:37.988Z,33.30
2018-09-11T14:12:06.135Z,34.00
2018-09-11T14:14:34.203Z,34.40
2018-09-11T14:17:02.305Z,32.90
2018-09-11T14:19:30.396Z,32.70
2018-09-11T14:21:58.473Z,33.70
2018-09-11T14:24:26.576Z,34.50
2018-09-11T14:26:54.756Z,35.00
2018-09-11T14:29:22.800Z,35.60
2018-09-11T14:31:50.926Z,34.70
2018-09-11T14:34:19.036Z,34.70
2018-09-11T14:36:47.111Z,34.60
2018-09-11T14:39:15.194Z,33.60
2018-09-11T14:41:43.294Z,31.90
2018-09-11T14:44:11.370Z,30.10
2018-09-11T14:46:39.492Z,29.10
2018-09-11T14:49:07.507Z,28.50
2018-09-11T14:51:35.600Z,28.20
2018-09-11T14:54:03.667Z,27.90
2018-09-11T14:56:31.810Z,28.10
2018-09-11T14:58:59.961Z,28.40
2018-09-11T15:01:29.067Z,28.60
2018-09-11T15:03:57.203Z,28.20
2018-09-11T15:06:25.283Z,27.60
2018-09-11T15:08:53.370Z,27.30
2018-09-11T15:11:21.477Z,27.20
2018-09-11T15:13:49.541Z,27.00
2018-09-11T15:16:17.608Z,27.00
2018-09-11T15:18:45.687Z,26.70
2018-09-11T15:21:13.793Z,26.60
2018-09-11T15:23:41.958Z,26.50
2018-09-11T15:26:10.066Z,26.40
2018-09-11T15:28:38.175Z,26.30
2018-09-11T15:31:06.253Z,26.40
2018-09-11T15:33:34.329Z,26.40
2018-09-11T15:36:02.471Z,26.50
2018-09-11T15:38:30.574Z,26.60
2018-09-11T15:40:58.695Z,26.60
2018-09-11T15:43:26.786Z,26.60
2018-09-11T15:45:54.854Z,26.70
2018-09-11T15:48:22.908Z,27.00
2018-09-11T15:50:51.061Z,27.20
2018-09-11T15:53:19.211Z,27.30
2018-09-11T15:55:47.416Z,27.40
2018-09-11T15:58:15.479Z,27.30
2018-09-11T16:00:43.571Z,27.00
2018-09-11T16:03:11.660Z,26.70
2018-09-11T16:05:39.781Z,26.40
2018-09-11T16:08:07.835Z,26.20
2018-09-11T16:10:35.938Z,26.00
2018-09-11T16:13:04.232Z,25.90
2018-09-11T16:15:32.420Z,25.90
2018-09-11T16:18:00.503Z,25.90
2018-09-11T16:20:28.566Z,25.90
2018-09-11T16:22:56.673Z,25.80
2018-09-11T16:25:24.837Z,25.60
2018-09-11T16:27:53.490Z,25.50
2018-09-11T16:30:21.579Z,25.30
2018-09-11T16:32:49.651Z,25.20
2018-09-11T16:35:17.715Z,25.10
2018-09-11T16:37:45.770Z,25.10
2018-09-11T16:40:13.889Z,25.10
2018-09-11T16:42:42.006Z,25.00
2018-09-11T16:45:10.087Z,24.90
2018-09-11T16:47:38.177Z,24.80
2018-09-11T16:50:06.232Z,24.60
2018-09-11T16:52:34.302Z,24.50
2018-09-11T16:55:03.622Z,24.50
2018-09-11T16:57:31.751Z,24.50
2018-09-11T16:59:59.835Z,24.40
2018-09-11T17:02:28.014Z,24.40
2018-09-11T17:04:56.167Z,24.30
2018-09-11T17:07:24.708Z,24.30
2018-09-11T17:09:52.886Z,24.10
2018-09-11T17:12:21.004Z,24.00
2018-09-11T17:14:49.180Z,23.90
2018-09-11T17:17:17.267Z,23.80
2018-09-11T17:19:45.417Z,23.70
2018-09-11T17:22:13.529Z,23.60
2018-09-11T17:24:41.654Z,23.50
2018-09-11T17:27:09.872Z,23.50
2018-09-11T17:29:39.405Z,23.40
2018-09-11T17:32:07.552Z,23.20
2018-09-11T17:34:35.613Z,23.10
2018-09-11T17:37:03.683Z,22.80
2018-09-11T17:39:31.801Z,22.60
2018-09-11T17:41:59.903Z,22.70
2018-09-11T17:44:27.958Z,22.50
2018-09-11T17:46:56.024Z,22.40
2018-09-11T17:49:24.112Z,22.40
2018-09-11T17:51:52.247Z,22.40
2018-09-11T17:54:20.372Z,22.30
2018-09-11T17:56:48.455Z,22.10
2018-09-11T17:59:16.603Z,22.00
2018-09-11T18:01:44.712Z,22.10
2018-09-11T18:04:13.970Z,22.30
2018-09-11T18:06:42.161Z,22.20
2018-09-11T18:09:10.244Z,22.10
2018-09-11T18:11:38.372Z,22.10
2018-09-11T18:14:07.395Z,22.00
2018-09-11T18:16:35.504Z,21.90
2018-09-11T18:19:03.624Z,21.80
2018-09-11T18:21:31.765Z,21.80
2018-09-11T18:24:00.075Z,22.00
2018-09-11T18:26:28.236Z,22.00
2018-09-11T18:28:56.344Z,22.00
2018-09-11T18:31:24.538Z,21.90
2018-09-11T18:33:52.630Z,21.70
2018-09-11T18:36:20.781Z,21.50
2018-09-11T18:38:48.898Z,21.20
2018-09-11T18:41:16.956Z,21.20
2018-09-11T18:43:45.078Z,21.20
2018-09-11T18:46:13.182Z,21.30
2018-09-11T18:48:41.345Z,21.20
2018-09-11T18:51:09.651Z,21.30
2018-09-11T18:53:37.743Z,21.30
2018-09-11T18:56:05.904Z,21.40
2018-09-11T18:58:34.010Z,21.50
2018-09-11T19:01:02.140Z,21.50
2018-09-11T19:03:30.239Z,21.40
2018-09-11T19:08:51.142Z,21.20
2018-09-11T19:11:19.321Z,21.10
2018-09-11T19:13:47.507Z,21.20
2018-09-11T19:16:15.612Z,21.20
2018-09-11T19:18:43.743Z,21.10
2018-09-11T19:21:11.951Z,20.90
2018-09-11T19:23:40.193Z,20.80
2018-09-11T19:26:08.303Z,20.70
2018-09-11T19:28:36.544Z,20.50
2018-09-11T19:31:04.806Z,20.50
2018-09-11T19:33:32.906Z,20.40
2018-09-11T19:36:01.065Z,20.30
2018-09-11T19:38:29.203Z,20.20
2018-09-11T19:40:57.271Z,20.10
2018-09-11T19:43:25.365Z,19.80
2018-09-11T19:45:53.472Z,19.50
2018-09-11T19:48:21.698Z,19.20
2018-09-11T19:50:49.798Z,18.90
2018-09-11T19:53:17.899Z,18.70
2018-09-11T19:55:46.045Z,18.50
2018-09-11T19:58:14.138Z,18.30
2018-09-11T20:00:43.096Z,18.00
2018-09-11T20:03:11.301Z,17.80
2018-09-11T20:05:39.428Z,17.70
2018-09-11T20:08:07.511Z,17.60
2018-09-11T20:10:35.691Z,17.50
2018-09-11T20:13:03.784Z,17.50
2018-09-11T20:15:31.872Z,17.40
2018-09-11T20:18:00.825Z,17.30
2018-09-11T20:20:28.966Z,17.30
2018-09-11T20:22:57.068Z,17.30
2018-09-11T20:25:25.244Z,17.30
2018-09-11T20:27:53.449Z,17.40
2018-09-11T20:30:21.857Z,17.40
2018-09-11T20:33:00.175Z,17.50
2018-09-11T20:35:28.289Z,17.60
2018-09-11T20:37:58.487Z,17.70
2018-09-11T20:40:26.562Z,17.80
2018-09-11T20:42:54.626Z,18.00
2018-09-11T20:45:22.711Z,18.20
2018-09-11T20:47:50.842Z,18.30
2018-09-11T20:50:18.923Z,18.40
2018-09-11T20:52:46.994Z,18.40
2018-09-11T20:55:15.219Z,18.40
2018-09-11T20:57:43.292Z,18.30
2018-09-11T21:00:11.380Z,18.20
2018-09-11T21:02:39.488Z,18.10
2018-09-11T21:05:07.688Z,18.00
2018-09-11T21:07:35.843Z,17.90
2018-09-11T21:10:04.020Z,18.00
2018-09-11T21:12:32.168Z,18.20
2018-09-11T21:15:00.383Z,18.20
2018-09-11T21:17:28.540Z,18.20
2018-09-11T21:19:56.846Z,18.30
2018-09-11T21:22:24.951Z,18.30
2018-09-11T21:24:53.040Z,18.20
2018-09-11T21:27:21.133Z,18.10
2018-09-11T21:29:49.242Z,18.10
2018-09-11T21:32:17.346Z,18.00
2018-09-11T21:34:45.435Z,18.00
2018-09-11T21:37:13.646Z,17.90
2018-09-11T21:39:41.806Z,17.80
2018-09-11T21:42:09.928Z,17.90
2018-09-11T21:44:38.078Z,18.10
2018-09-11T21:47:06.195Z,18.20
2018-09-11T21:49:34.308Z,18.40
2018-09-11T21:52:02.391Z,18.40
2018-09-11T21:54:30.523Z,18.50
2018-09-11T21:56:58.668Z,18.70
2018-09-11T21:59:26.767Z,18.80
2018-09-11T22:01:59.138Z,18.90
2018-09-11T22:04:27.212Z,19.10
2018-09-11T22:06:55.295Z,19.10
2018-09-11T22:09:23.382Z,19.30
2018-09-11T22:11:51.458Z,19.40
2018-09-11T22:14:19.535Z,19.50
2018-09-11T22:16:47.681Z,19.70
2018-09-11T22:19:15.932Z,19.70
2018-09-11T22:21:44.070Z,19.70
2018-09-11T22:24:12.137Z,19.70
2018-09-11T22:26:40.291Z,19.70
2018-09-11T22:29:08.366Z,19.70
2018-09-11T22:31:36.421Z,19.70
2018-09-11T22:34:04.499Z,19.50
2018-09-11T22:36:32.585Z,19.50
2018-09-11T22:39:00.680Z,19.50
2018-09-11T22:41:28.791Z,19.40
2018-09-11T22:43:56.866Z,19.20
2018-09-11T22:46:25.262Z,19.00
2018-09-11T22:48:53.473Z,18.50
2018-09-11T22:51:21.563Z,18.10
2018-09-11T22:53:49.630Z,17.80
2018-09-11T22:56:17.739Z,17.70
2018-09-11T22:58:45.801Z,17.60
2018-09-11T23:01:13.875Z,17.40
2018-09-11T23:03:41.941Z,17.40
2018-09-11T23:06:10.115Z,17.40
2018-09-11T23:08:38.230Z,17.20
2018-09-11T23:11:06.335Z,17.00
2018-09-11T23:13:34.595Z,16.80
2018-09-11T23:16:02.666Z,16.60
2018-09-11T23:18:30.792Z,16.30
2018-09-11T23:20:58.891Z,16.10
2018-09-11T23:23:26.949Z,15.90
2018-09-11T23:25:55.026Z,15.70
2018-09-11T23:28:23.098Z,15.80
2018-09-11T23:30:51.180Z,16.00
2018-09-11T23:33:19.302Z,16.30
2018-09-11T23:35:47.366Z,16.50
2018-09-11T23:38:15.416Z,16.50
2018-09-11T23:40:43.483Z,16.40
2018-09-11T23:43:11.529Z,16.20
2018-09-11T23:45:39.671Z,16.00
2018-09-11T23:48:07.725Z,15.80
2018-09-11T23:50:36.389Z,15.70
2018-09-11T23:53:04.451Z,15.50
2018-09-11T23:55:32.512Z,15.40
2018-09-11T23:58:00.578Z,15.40
